Time;durP1;ratioP1;P1;durP2;ratioP2;P2;SDS_P1;SDS_P2;PMS_P1;PMS_P2;Temp;Humidity;BMP_temperature;BMP_pressure;BME280_temperature;BME280_humidity;BME280_pressure;Samples;Min_cycle;Max_cycle;Signal;HPM_P1;HPM_P2
2022/10/29 00:02:05;;;;;;;1999.90;999.90;;;21.30;99.90;;;;;;5032915;28;20396;-86
2022/10/29 00:04:31;;;;;;;1999.90;999.90;;;21.30;99.90;;;;;;5023078;28;20033;-86
2022/10/29 00:06:56;;;;;;;1999.90;999.90;;;21.30;99.90;;;;;;5013126;28;20029;-85
2022/10/29 00:09:22;;;;;;;1999.90;999.90;;;21.30;99.90;;;;;;5013329;28;20026;-86
2022/10/29 00:11:47;;;;;;;1999.90;999.90;;;21.30;99.90;;;;;;5012595;28;20034;-85
2022/10/29 00:14:15;;;;;;;1999.90;999.90;;;21.20;99.90;;;;;;4995462;28;20044;-85
2022/10/29 00:16:40;;;;;;;1999.90;999.90;;;21.30;99.90;;;;;;5012898;28;20507;-85
2022/10/29 00:19:06;;;;;;;1999.90;999.90;;;21.30;99.90;;;;;;5013129;28;20026;-85
2022/10/29 00:21:33;;;;;;;1999.90;999.90;;;21.30;99.90;;;;;;5012601;28;20036;-86
2022/10/29 00:23:59;;;;;;;1999.90;999.90;;;21.20;99.90;;;;;;5018224;28;20045;-85
2022/10/29 00:26:28;;;;;;;1999.90;999.90;;;21.20;99.90;;;;;;5032588;28;20073;-86
2022/10/29 00:28:57;;;;;;;1999.90;999.90;;;21.10;99.90;;;;;;5032633;28;20022;-86
2022/10/29 00:31:23;;;;;;;1999.90;999.90;;;21.10;99.90;;;;;;5032912;28;20021;-85
2022/10/29 00:33:50;;;;;;;1999.90;999.90;;;21.10;99.90;;;;;;5032545;28;20536;-86
2022/10/29 00:36:20;;;;;;;1999.90;999.90;;;21.10;99.90;;;;;;5032357;28;20487;-86
2022/10/29 00:38:47;;;;;;;1999.90;999.90;;;21.10;99.90;;;;;;5014456;28;20124;-86
2022/10/29 00:41:16;;;;;;;1999.90;999.90;;;21.00;99.90;;;;;;5032632;28;20079;-86
2022/10/29 00:44:10;;;;;;;1999.90;999.90;;;21.00;99.90;;;;;;5025533;28;20049;-85
2022/10/29 00:46:36;;;;;;;1999.90;999.90;;;21.10;99.90;;;;;;4994925;28;20026;-84
2022/10/29 00:49:02;;;;;;;1999.90;999.90;;;21.00;99.90;;;;;;5012718;28;20029;-86
2022/10/29 00:51:29;;;;;;;1999.90;999.90;;;20.90;99.90;;;;;;5012609;28;20030;-86
2022/10/29 00:54:01;;;;;;;1999.90;999.90;;;21.00;99.90;;;;;;5012144;28;20042;-86
2022/10/29 00:56:30;;;;;;;1999.90;999.90;;;20.90;99.90;;;;;;5012468;28;20033;-85
2022/10/29 00:58:56;;;;;;;1999.90;999.90;;;20.80;99.90;;;;;;5012453;28;20014;-85
2022/10/29 01:01:22;;;;;;;1999.90;999.90;;;20.70;99.90;;;;;;4995002;28;20025;-85
2022/10/29 01:03:48;;;;;;;1999.90;999.90;;;20.70;99.90;;;;;;5011255;28;20033;-85
2022/10/29 01:06:14;;;;;;;1999.90;999.90;;;20.70;99.90;;;;;;4994466;28;20033;-85
2022/10/29 01:08:39;;;;;;;1999.90;999.90;;;20.60;99.90;;;;;;5012002;28;20037;-86
2022/10/29 01:11:24;;;;;;;1999.90;999.90;;;20.60;99.90;;;;;;5012587;28;20057;-86
2022/10/29 01:13:58;;;;;;;1999.90;999.90;;;20.60;99.90;;;;;;5012180;28;20473;-85
2022/10/29 01:16:47;;;;;;;1999.90;999.90;;;20.60;99.90;;;;;;4994368;28;20029;-85
2022/10/29 01:19:15;;;;;;;1999.90;999.90;;;20.60;99.90;;;;;;4994765;28;20018;-86
2022/10/29 01:21:55;;;;;;;1999.90;999.90;;;20.50;99.90;;;;;;4994248;28;20037;-84
2022/10/29 01:24:24;;;;;;;1999.90;999.90;;;20.50;99.90;;;;;;5013807;28;20113;-85
2022/10/29 01:27:23;;;;;;;1999.90;999.90;;;20.50;99.90;;;;;;5012420;28;20033;-86
2022/10/29 01:29:56;;;;;;;1999.90;999.90;;;20.50;99.90;;;;;;5012230;28;20113;-85
2022/10/29 01:32:25;;;;;;;;;;;20.40;99.90;;;;;;5012440;28;20034;-86
2022/10/29 01:34:57;;;;;;;1999.90;999.90;;;20.40;99.90;;;;;;5012348;28;19906;-86
2022/10/29 01:37:52;;;;;;;1999.90;999.90;;;20.40;99.90;;;;;;5012221;28;20018;-85
2022/10/29 01:40:32;;;;;;;1999.90;999.90;;;20.30;99.90;;;;;;4988169;28;20049;-85
2022/10/29 01:43:13;;;;;;;1999.90;999.90;;;20.30;99.90;;;;;;5011730;28;20101;-86
2022/10/29 01:45:45;;;;;;;1999.90;999.90;;;20.30;99.90;;;;;;5011260;28;20084;-85
2022/10/29 01:48:16;;;;;;;1999.90;999.90;;;20.30;99.90;;;;;;5012025;28;20034;-85
2022/10/29 01:50:45;;;;;;;1999.90;999.90;;;20.30;99.90;;;;;;5011694;28;20026;-85
2022/10/29 01:53:11;;;;;;;1999.90;999.90;;;20.30;99.90;;;;;;5012030;28;20056;-86
2022/10/29 01:55:37;;;;;;;1999.90;999.90;;;20.30;99.90;;;;;;5014280;28;20022;-85
2022/10/29 01:58:04;;;;;;;1999.90;999.90;;;20.30;99.90;;;;;;5015322;28;20066;-85
2022/10/29 02:00:44;;;;;;;1999.90;999.90;;;20.30;99.90;;;;;;5014319;28;20444;-84
2022/10/29 02:04:01;;;;;;;1999.90;999.90;;;20.30;99.90;;;;;;5020602;28;20500;-85
2022/10/29 02:06:53;;;;;;;1999.90;999.90;;;20.20;99.90;;;;;;4954476;29;20027;-85
2022/10/29 02:09:34;;;;;;;1999.90;999.90;;;20.20;99.90;;;;;;4955334;29;20039;-85
2022/10/29 02:12:23;;;;;;;1999.90;999.90;;;20.20;99.90;;;;;;4954329;29;20392;-85
2022/10/29 02:15:03;;;;;;;1999.90;999.90;;;20.20;99.90;;;;;;4954845;29;20043;-85
2022/10/29 02:17:33;;;;;;;1999.90;999.90;;;20.10;99.90;;;;;;4938797;29;20020;-85
2022/10/29 02:20:04;;;;;;;1999.90;999.90;;;20.20;99.90;;;;;;4954579;29;20227;-85
2022/10/29 02:22:29;;;;;;;1999.90;999.90;;;20.10;99.90;;;;;;4952876;29;20035;-84
2022/10/29 02:24:55;;;;;;;1999.90;999.90;;;20.10;99.90;;;;;;4954496;29;20031;-86
2022/10/29 02:27:20;;;;;;;1999.90;999.90;;;20.10;99.90;;;;;;4954866;29;20508;-85
2022/10/29 02:29:46;;;;;;;1999.90;999.90;;;20.10;99.90;;;;;;4954620;29;20120;-85
2022/10/29 02:32:11;;;;;;;1999.90;999.90;;;20.00;99.90;;;;;;4954360;29;20039;-85
2022/10/29 02:34:37;;;;;;;1999.90;999.90;;;20.00;99.90;;;;;;4954362;29;20047;-84
2022/10/29 02:37:03;;;;;;;1999.90;999.90;;;19.90;99.90;;;;;;4954163;29;20086;-85
2022/10/29 02:39:29;;;;;;;1999.90;999.90;;;19.90;99.90;;;;;;4955932;28;20034;-85
2022/10/29 02:41:55;;;;;;;1999.90;999.90;;;19.90;99.90;;;;;;5034459;28;20370;-85
2022/10/29 02:44:20;;;;;;;1999.90;999.90;;;19.90;99.90;;;;;;4997441;28;20033;-85
2022/10/29 02:46:46;;;;;;;1999.90;999.90;;;19.90;99.90;;;;;;5013930;28;20517;-85
2022/10/29 02:49:12;;;;;;;1999.90;999.90;;;19.80;99.90;;;;;;5014815;28;20038;-85
2022/10/29 02:51:37;;;;;;;1999.90;999.90;;;19.70;99.90;;;;;;5014301;28;20034;-85
2022/10/29 02:54:03;;;;;;;1999.90;999.90;;;19.70;99.90;;;;;;5014440;28;20060;-85
2022/10/29 02:56:29;;;;;;;1999.90;999.90;;;19.70;99.90;;;;;;5014398;28;20485;-85
2022/10/29 02:58:54;;;;;;;1999.90;999.90;;;19.70;99.90;;;;;;5014529;28;20084;-85
2022/10/29 03:01:20;;;;;;;1999.90;999.90;;;19.70;99.90;;;;;;4996971;28;20033;-85
2022/10/29 03:03:45;;;;;;;1999.90;999.90;;;19.70;99.90;;;;;;5014406;28;20100;-85
2022/10/29 03:06:13;;;;;;;1999.90;999.90;;;19.70;99.90;;;;;;5012817;28;20091;-85
2022/10/29 03:08:39;;;;;;;1999.90;999.90;;;19.70;99.90;;;;;;4996468;28;20088;-85
2022/10/29 03:11:04;;;;;;;1999.90;999.90;;;19.60;99.90;;;;;;5013995;28;20437;-85
2022/10/29 03:13:30;;;;;;;1999.90;999.90;;;19.70;99.90;;;;;;4996566;28;20064;-85
2022/10/29 03:15:55;;;;;;;1999.90;999.90;;;19.60;99.90;;;;;;5014143;28;20022;-85
2022/10/29 03:18:21;;;;;;;1999.90;999.90;;;19.60;99.90;;;;;;5014098;28;20024;-84
2022/10/29 03:20:47;;;;;;;1999.90;999.90;;;19.60;99.90;;;;;;5013480;28;20426;-84
2022/10/29 03:23:12;;;;;;;1999.90;999.90;;;19.70;99.90;;;;;;5024299;28;20029;-85
2022/10/29 03:25:38;;;;;;;1999.90;999.90;;;19.60;99.90;;;;;;5033587;28;20025;-85
2022/10/29 03:28:04;;;;;;;1999.90;999.90;;;19.60;99.90;;;;;;5033703;28;20021;-85
2022/10/29 03:30:30;;;;;;;1999.90;999.90;;;19.60;99.90;;;;;;5033615;28;20030;-86
2022/10/29 03:32:55;;;;;;;1999.90;999.90;;;19.60;99.90;;;;;;5015638;28;20572;-85
2022/10/29 03:35:21;;;;;;;1999.90;999.90;;;19.60;99.90;;;;;;5018315;28;20401;-85
2022/10/29 03:37:49;;;;;;;1999.90;999.90;;;19.50;99.90;;;;;;5013688;28;20025;-85
2022/10/29 03:40:15;;;;;;;1999.90;999.90;;;19.50;99.90;;;;;;5013587;28;20026;-85
2022/10/29 03:42:41;;;;;;;1999.90;999.90;;;19.40;99.90;;;;;;4996064;28;20037;-85
2022/10/29 03:45:09;;;;;;;1999.90;999.90;;;19.40;99.90;;;;;;5013787;28;20416;-85
2022/10/29 03:47:35;;;;;;;1999.90;999.90;;;19.40;99.90;;;;;;5012788;28;20385;-85
2022/10/29 03:50:01;;;;;;;1999.90;999.90;;;19.40;99.90;;;;;;4996208;28;20358;-85
2022/10/29 03:52:27;;;;;;;1999.90;999.90;;;19.40;99.90;;;;;;5012921;28;20029;-84
2022/10/29 03:54:53;;;;;;;1999.90;999.90;;;19.40;99.90;;;;;;5020777;28;20040;-85
2022/10/29 03:57:19;;;;;;;1999.90;999.90;;;19.30;99.90;;;;;;5015397;28;20021;-86
2022/10/29 03:59:44;;;;;;;1999.90;999.90;;;19.30;99.90;;;;;;5033107;28;20076;-85
2022/10/29 04:02:11;;;;;;;1999.90;999.90;;;19.30;99.90;;;;;;5031706;28;20029;-85
2022/10/29 04:04:37;;;;;;;1999.90;999.90;;;19.30;99.90;;;;;;5032980;28;20049;-85
2022/10/29 04:07:03;;;;;;;1999.90;999.90;;;19.30;99.90;;;;;;5033002;28;20025;-85
2022/10/29 04:09:29;;;;;;;1999.90;999.90;;;19.20;99.90;;;;;;5032746;28;20087;-85
2022/10/29 04:11:54;;;;;;;1999.90;999.90;;;19.20;99.90;;;;;;5031707;28;20072;-85
2022/10/29 04:14:20;;;;;;;1999.90;999.90;;;19.20;99.90;;;;;;5032760;28;20099;-85
2022/10/29 04:16:46;;;;;;;1999.90;999.90;;;19.20;99.90;;;;;;5032252;28;20396;-85
2022/10/29 04:19:11;;;;;;;1999.90;999.90;;;19.20;99.90;;;;;;5031750;28;20036;-85
2022/10/29 04:21:37;;;;;;;1999.90;999.90;;;19.20;99.90;;;;;;5032284;28;20022;-85
2022/10/29 04:24:03;;;;;;;1999.90;999.90;;;19.10;99.90;;;;;;5032405;28;20029;-85
2022/10/29 04:26:29;;;;;;;1999.90;999.90;;;19.10;99.90;;;;;;5031636;28;20028;-85
2022/10/29 04:28:54;;;;;;;1999.90;999.90;;;19.10;99.90;;;;;;5014811;28;20055;-86
2022/10/29 04:31:20;;;;;;;1999.90;999.90;;;19.10;99.90;;;;;;5032832;28;20113;-85
2022/10/29 04:33:46;;;;;;;1999.90;999.90;;;19.00;99.90;;;;;;5032568;28;20112;-85
2022/10/29 04:36:12;;;;;;;1999.90;999.90;;;19.00;99.90;;;;;;5032524;28;20021;-85
2022/10/29 04:38:38;;;;;;;1999.90;999.90;;;19.00;99.90;;;;;;5032332;28;20535;-85
2022/10/29 04:41:04;;;;;;;1999.90;999.90;;;18.90;99.90;;;;;;5032531;28;20187;-86
2022/10/29 04:43:30;;;;;;;1999.90;999.90;;;18.90;99.90;;;;;;4997682;28;20064;-85
2022/10/29 04:45:58;;;;;;;1999.90;999.90;;;18.90;99.90;;;;;;5012473;28;20030;-85
2022/10/29 04:48:25;;;;;;;1999.90;999.90;;;18.90;99.90;;;;;;5012492;28;20037;-85
2022/10/29 04:50:51;;;;;;;1999.90;999.90;;;18.80;99.90;;;;;;5012488;28;20033;-85
2022/10/29 04:53:17;;;;;;;1999.90;999.90;;;18.80;99.90;;;;;;4994889;28;20417;-85
2022/10/29 04:55:43;;;;;;;1999.90;999.90;;;18.70;99.90;;;;;;5012798;28;20129;-86
2022/10/29 04:58:14;;;;;;;1999.90;999.90;;;18.70;99.90;;;;;;4997334;28;20025;-85
2022/10/29 05:00:40;;;;;;;1999.90;999.90;;;18.60;99.90;;;;;;5032092;28;20132;-85
2022/10/29 05:03:06;;;;;;;1999.90;999.90;;;18.60;99.90;;;;;;5030774;28;20033;-84
2022/10/29 05:05:32;;;;;;;1999.90;999.90;;;18.60;99.90;;;;;;5032294;28;20033;-85
2022/10/29 05:07:59;;;;;;;1999.90;999.90;;;18.60;99.90;;;;;;5031920;28;20030;-85
2022/10/29 05:10:30;;;;;;;1999.90;999.90;;;18.60;99.90;;;;;;5013531;28;20103;-85
2022/10/29 05:13:00;;;;;;;1999.90;999.90;;;18.50;99.90;;;;;;5013734;28;20029;-85
2022/10/29 05:15:27;;;;;;;1999.90;999.90;;;18.50;99.90;;;;;;5031318;28;20046;-85
2022/10/29 05:17:54;;;;;;;1999.90;999.90;;;18.50;99.90;;;;;;5031983;28;20026;-85
2022/10/29 05:20:19;;;;;;;1999.90;999.90;;;18.40;99.90;;;;;;5031959;28;20037;-85
2022/10/29 05:22:45;;;;;;;1999.90;999.90;;;18.40;99.90;;;;;;5031445;28;20029;-85
2022/10/29 05:25:11;;;;;;;1999.90;999.90;;;18.40;99.90;;;;;;5031862;28;20064;-85
2022/10/29 05:27:37;;;;;;;1999.90;999.90;;;18.40;99.90;;;;;;5014435;28;20033;-85
2022/10/29 05:30:03;;;;;;;1999.90;999.90;;;18.30;99.90;;;;;;5032333;28;20021;-85
2022/10/29 05:32:28;;;;;;;1999.90;999.90;;;18.30;99.90;;;;;;5035693;28;20033;-85
2022/10/29 05:34:54;;;;;;;1999.90;999.90;;;18.20;99.90;;;;;;5018058;28;20052;-85
2022/10/29 05:37:19;;;;;;;1999.90;999.90;;;18.20;99.90;;;;;;5035894;28;20511;-85
2022/10/29 05:39:45;;;;;;;1999.90;999.90;;;18.10;99.90;;;;;;5035987;28;20547;-85
2022/10/29 05:42:11;;;;;;;1999.90;999.90;;;18.10;99.90;;;;;;5017395;28;20030;-85
2022/10/29 05:44:36;;;;;;;1999.90;999.90;;;18.10;99.90;;;;;;5035192;28;20036;-84
2022/10/29 05:47:04;;;;;;;1999.90;999.90;;;18.10;99.90;;;;;;5034466;28;20029;-85
2022/10/29 05:49:30;;;;;;;1999.90;999.90;;;18.20;99.90;;;;;;5035789;28;20018;-84
2022/10/29 05:51:56;;;;;;;1999.90;999.90;;;18.10;99.90;;;;;;5035139;28;20029;-85
2022/10/29 05:54:21;;;;;;;1999.90;999.90;;;18.10;99.90;;;;;;5017393;28;20400;-85
2022/10/29 05:56:47;;;;;;;1999.90;999.90;;;18.10;99.90;;;;;;5034934;28;20024;-85
2022/10/29 05:59:13;;;;;;;1999.90;999.90;;;18.10;99.90;;;;;;5017655;28;20492;-84
2022/10/29 06:01:38;;;;;;;1999.90;999.90;;;18.10;99.90;;;;;;5035032;28;20565;-85
2022/10/29 06:04:04;;;;;;;1999.90;999.90;;;18.20;99.90;;;;;;5035320;28;20021;-85
2022/10/29 06:06:30;;;;;;;1999.90;999.90;;;18.20;99.90;;;;;;5017048;28;20112;-85
2022/10/29 06:08:55;;;;;;;1999.90;999.90;;;18.20;99.90;;;;;;5034996;28;20029;-84
2022/10/29 06:11:21;;;;;;;1999.90;999.90;;;18.20;99.90;;;;;;5033862;28;20036;-85
2022/10/29 06:13:46;;;;;;;1999.90;999.90;;;18.20;99.90;;;;;;5034616;28;20048;-85
2022/10/29 06:16:12;;;;;;;1999.90;999.90;;;18.20;99.90;;;;;;5034935;28;20100;-86
2022/10/29 06:18:38;;;;;;;1999.90;999.90;;;18.20;99.90;;;;;;5017209;28;20033;-85
2022/10/29 06:21:03;;;;;;;1999.90;999.90;;;18.30;99.90;;;;;;5033640;28;20052;-84
2022/10/29 06:23:29;;;;;;;1999.90;999.90;;;18.30;99.90;;;;;;4996941;28;20520;-85
2022/10/29 06:25:59;;;;;;;1999.90;999.90;;;18.30;99.90;;;;;;4997322;28;20026;-85
2022/10/29 06:28:26;;;;;;;1999.90;999.90;;;18.30;99.90;;;;;;5014934;28;20397;-85
2022/10/29 06:30:51;;;;;;;1999.90;999.90;;;18.30;99.90;;;;;;5014804;28;20444;-86
2022/10/29 06:33:18;;;;;;;1999.90;999.90;;;18.30;99.90;;;;;;5015030;28;20076;-85
2022/10/29 06:35:44;;;;;;;1999.90;999.90;;;18.30;99.90;;;;;;5014867;28;20486;-86
2022/10/29 06:38:10;;;;;;;1999.90;999.90;;;18.20;99.90;;;;;;5014683;28;20033;-84
2022/10/29 06:40:36;;;;;;;1999.90;999.90;;;18.20;99.90;;;;;;4996885;28;20038;-86
2022/10/29 06:43:04;;;;;;;1999.90;999.90;;;18.20;99.90;;;;;;5013951;28;20516;-86
2022/10/29 06:45:30;;;;;;;1999.90;999.90;;;18.20;99.90;;;;;;4997253;28;20116;-86
2022/10/29 06:47:56;;;;;;;1999.90;999.90;;;18.20;99.90;;;;;;4996917;28;20026;-85
2022/10/29 06:50:22;;;;;;;1999.90;999.90;;;18.20;99.90;;;;;;4997011;28;20053;-85
2022/10/29 06:52:54;;;;;;;1999.90;999.90;;;18.20;99.90;;;;;;5014007;28;20108;-87
2022/10/29 06:55:19;;;;;;;1999.90;999.90;;;18.20;99.90;;;;;;4996991;28;20481;-85
2022/10/29 06:57:45;;;;;;;1999.90;999.90;;;18.30;99.90;;;;;;5014381;28;20018;-86
2022/10/29 07:00:11;;;;;;;1999.90;999.90;;;18.30;99.90;;;;;;4996915;28;20121;-86
2022/10/29 07:02:37;;;;;;;1999.90;999.90;;;18.30;99.90;;;;;;5027930;28;20496;-85
2022/10/29 07:05:02;;;;;;;1999.90;999.90;;;18.40;99.90;;;;;;5034158;28;20038;-85
2022/10/29 07:07:28;;;;;;;1999.90;999.90;;;18.30;99.90;;;;;;5016123;28;20037;-85
2022/10/29 07:09:54;;;;;;;1999.90;999.90;;;18.20;99.90;;;;;;5034096;28;20022;-86
2022/10/29 07:12:19;;;;;;;1999.90;999.90;;;18.10;99.90;;;;;;5032897;28;20480;-86
2022/10/29 07:14:45;;;;;;;1999.90;999.90;;;18.20;99.90;;;;;;5033829;28;20029;-85
2022/10/29 07:17:10;;;;;;;1999.90;999.90;;;18.10;99.90;;;;;;5015455;28;20030;-85
2022/10/29 07:19:36;;;;;;;1999.90;999.90;;;18.10;99.90;;;;;;5034047;28;20064;-85
2022/10/29 07:22:02;;;;;;;1999.90;999.90;;;18.10;99.90;;;;;;5032896;28;20037;-86
2022/10/29 07:24:27;;;;;;;1999.90;999.90;;;18.10;99.90;;;;;;5033554;28;20064;-85
2022/10/29 07:26:53;;;;;;;1999.90;999.90;;;18.20;99.90;;;;;;5033555;28;20033;-85
2022/10/29 07:29:18;;;;;;;1999.90;999.90;;;18.20;99.90;;;;;;5033842;28;20025;-85
2022/10/29 07:31:44;;;;;;;1999.90;999.90;;;18.20;99.90;;;;;;5015870;28;20037;-85
2022/10/29 07:34:10;;;;;;;1999.90;999.90;;;18.30;99.90;;;;;;5033377;28;20026;-85
2022/10/29 07:36:36;;;;;;;1999.90;999.90;;;18.30;99.90;;;;;;5033308;28;20387;-85
2022/10/29 07:39:02;;;;;;;1999.90;999.90;;;18.30;99.90;;;;;;5033315;28;20104;-86
2022/10/29 07:41:28;;;;;;;1999.90;999.90;;;18.40;99.90;;;;;;5014912;28;20440;-85
2022/10/29 07:43:54;;;;;;;1999.90;999.90;;;18.40;99.90;;;;;;5033486;28;20017;-85
2022/10/29 07:46:19;;;;;;;1999.90;999.90;;;18.40;99.90;;;;;;5033557;28;20030;-85
2022/10/29 07:48:45;;;;;;;1999.90;999.90;;;18.50;99.90;;;;;;5033257;28;20560;-85
2022/10/29 07:51:11;;;;;;;1999.90;999.90;;;18.60;99.90;;;;;;5033191;28;20065;-85
2022/10/29 07:53:37;;;;;;;1999.90;999.90;;;18.70;99.90;;;;;;5032737;28;20081;-85
2022/10/29 07:56:02;;;;;;;1999.90;999.90;;;18.70;99.90;;;;;;5033008;28;20072;-86
2022/10/29 07:58:28;;;;;;;1999.90;999.90;;;18.70;99.90;;;;;;5032878;28;20387;-87
2022/10/29 08:00:54;;;;;;;1999.90;999.90;;;18.70;99.90;;;;;;5032630;28;20440;-85
2022/10/29 08:03:20;;;;;;;1999.90;999.90;;;18.70;99.90;;;;;;5033320;28;20025;-85
2022/10/29 08:05:48;;;;;;;1999.90;999.90;;;18.70;99.90;;;;;;5017900;28;20526;-85
2022/10/29 08:08:13;;;;;;;1999.90;999.90;;;18.70;99.90;;;;;;4995523;28;20022;-85
2022/10/29 08:10:39;;;;;;;1999.90;999.90;;;18.90;99.90;;;;;;5012894;28;20034;-86
2022/10/29 08:13:05;;;;;;;1999.90;999.90;;;18.90;99.90;;;;;;5012080;28;20401;-85
2022/10/29 08:15:33;;;;;;;1999.90;999.90;;;18.80;99.90;;;;;;5013328;28;20034;-85
2022/10/29 08:17:59;;;;;;;1999.90;999.90;;;18.90;99.90;;;;;;5013085;28;20022;-85
2022/10/29 08:20:27;;;;;;;1999.90;999.90;;;18.90;99.90;;;;;;5013523;28;20551;-85
2022/10/29 08:22:53;;;;;;;1999.90;999.90;;;19.10;99.90;;;;;;5011983;28;20108;-85
2022/10/29 08:25:19;;;;;;;1999.90;999.90;;;19.10;99.90;;;;;;4995336;28;20119;-85
2022/10/29 08:27:56;;;;;;;1999.90;999.90;;;19.20;99.90;;;;;;5012970;28;20514;-86
2022/10/29 08:30:21;;;;;;;1999.90;999.90;;;19.30;99.90;;;;;;5012769;28;20544;-85
2022/10/29 08:32:47;;;;;;;1999.90;999.90;;;19.50;99.90;;;;;;5012645;28;20040;-85
2022/10/29 08:35:13;;;;;;;1999.90;999.90;;;19.60;99.90;;;;;;5012849;28;20029;-86
2022/10/29 08:37:42;;;;;;;1999.90;999.90;;;19.70;99.90;;;;;;5012589;28;20101;-86
2022/10/29 08:40:33;;;;;;;1999.90;999.90;;;19.70;99.90;;;;;;5012865;28;20117;-85
2022/10/29 08:43:17;;;;;;;1999.90;999.90;;;19.80;99.90;;;;;;4982035;28;20504;-85
2022/10/29 08:45:47;;;;;;;1999.90;999.90;;;19.90;99.90;;;;;;5012861;28;20081;-86
2022/10/29 08:48:39;;;;;;;1999.90;999.90;;;20.00;99.90;;;;;;5012504;28;20481;-85
2022/10/29 08:51:18;;;;;;;1999.90;999.90;;;20.20;99.90;;;;;;5012323;28;20517;-85
2022/10/29 08:53:50;;;;;;;1999.90;999.90;;;20.40;99.90;;;;;;5012343;28;20457;-85
2022/10/29 08:56:24;;;;;;;1999.90;999.90;;;20.50;99.90;;;;;;5012534;28;20539;-85
2022/10/29 08:58:55;;;;;;;1999.90;999.90;;;20.60;99.90;;;;;;4994935;28;20113;-85
2022/10/29 09:01:22;;;;;;;1999.90;999.90;;;20.70;99.90;;;;;;5022985;28;20079;-85
2022/10/29 09:03:49;;;;;;;1999.90;999.90;;;20.80;99.90;;;;;;5033311;28;20484;-86
2022/10/29 09:06:24;;;;;;;1999.90;999.90;;;20.90;99.90;;;;;;5036016;28;20086;-85
2022/10/29 09:09:08;;;;;;;1999.90;999.90;;;21.00;99.90;;;;;;5036158;28;20130;-85
2022/10/29 09:12:02;;;;;;;1999.90;999.90;;;20.90;99.90;;;;;;5018538;28;20033;-85
2022/10/29 09:14:55;;;;;;;1999.90;999.90;;;20.90;99.90;;;;;;5035293;28;20029;-85
2022/10/29 09:17:51;;;;;;;1999.90;999.90;;;21.00;99.90;;;;;;5018272;28;20021;-85
2022/10/29 09:20:53;;;;;;;1999.90;999.90;;;21.00;99.90;;;;;;5016742;28;20029;-85
2022/10/29 09:23:45;;;;;;;1999.90;999.90;;;21.10;99.90;;;;;;5016125;28;20493;-86
2022/10/29 09:26:20;;;;;;;1999.90;999.90;;;21.10;99.90;;;;;;5016348;28;20026;-85
2022/10/29 09:29:14;;;;;;;1999.90;999.90;;;21.30;99.90;;;;;;5016302;28;20026;-85
2022/10/29 09:31:50;;;;;;;1999.90;999.90;;;21.40;99.90;;;;;;5016421;28;20034;-85
2022/10/29 09:34:30;;;;;;;1999.90;999.90;;;21.50;99.90;;;;;;4998137;28;20022;-86
2022/10/29 09:36:56;;;;;;;1999.90;999.90;;;21.60;99.90;;;;;;5015724;28;20022;-85
2022/10/29 09:39:34;;;;;;;1999.90;999.90;;;21.70;99.90;;;;;;5016179;28;20026;-86
2022/10/29 09:42:01;;;;;;;1999.90;999.90;;;21.80;99.90;;;;;;5015409;28;20112;-85
2022/10/29 09:44:53;;;;;;;1999.90;999.90;;;21.80;99.90;;;;;;4998180;28;20548;-86
2022/10/29 09:47:37;;;;;;;1999.90;999.90;;;21.80;99.90;;;;;;5015859;28;20033;-86
2022/10/29 09:50:32;;;;;;;1999.90;999.90;;;21.90;99.90;;;;;;5015743;28;20018;-87
2022/10/29 09:52:58;;;;;;;1999.90;999.90;;;21.90;99.90;;;;;;4983332;28;20520;-86
2022/10/29 09:55:30;;;;;;;1999.90;999.90;;;21.80;99.90;;;;;;5015640;28;20436;-86
2022/10/29 09:57:56;;;;;;;1999.90;999.90;;;22.00;99.90;;;;;;5015577;28;20515;-86
2022/10/29 10:00:28;;;;;;;1999.90;999.90;;;22.10;99.90;;;;;;5017529;28;20055;-86
2022/10/29 10:03:09;;;;;;;1999.90;999.90;;;22.10;99.90;;;;;;5017454;28;20363;-86
2022/10/29 10:05:54;;;;;;;1999.90;999.90;;;22.30;99.90;;;;;;5017563;28;20506;-85
2022/10/29 10:08:20;;;;;;;1999.90;999.90;;;22.40;99.90;;;;;;5017348;28;20499;-86
2022/10/29 10:10:58;;;;;;;1999.90;999.90;;;22.50;99.90;;;;;;5034754;28;20021;-86
2022/10/29 10:13:30;;;;;;;1999.90;999.90;;;22.60;99.90;;;;;;5035181;28;20030;-85
2022/10/29 10:15:58;;;;;;;1999.90;999.90;;;22.70;99.90;;;;;;5033696;28;20097;-86
2022/10/29 10:18:25;;;;;;;1999.90;999.90;;;22.70;99.90;;;;;;5034922;28;20033;-86
2022/10/29 10:21:07;;;;;;;1999.90;999.90;;;22.80;99.90;;;;;;5033660;28;20029;-85
2022/10/29 10:23:44;;;;;;;1999.90;999.90;;;22.90;99.90;;;;;;5035076;28;20544;-86
2022/10/29 10:26:32;;;;;;;1999.90;999.90;;;22.80;99.90;;;;;;5034763;28;20477;-85
2022/10/29 10:29:22;;;;;;;1999.90;999.90;;;22.80;99.90;;;;;;5034768;28;20399;-85
2022/10/29 10:32:08;;;;;;;1999.90;999.90;;;22.80;99.90;;;;;;5017024;28;20104;-86
2022/10/29 10:34:33;;;;;;;1999.90;999.90;;;22.70;99.90;;;;;;5034414;28;20393;-85
2022/10/29 10:37:08;;;;;;;1999.90;999.90;;;22.80;99.90;;;;;;5034411;28;20022;-86
2022/10/29 10:39:36;;;;;;;1999.90;999.90;;;22.80;99.90;;;;;;5034829;28;20484;-86
2022/10/29 10:42:26;;;;;;;1999.90;999.90;;;22.80;99.90;;;;;;5034120;28;20104;-86
2022/10/29 10:45:24;;;;;;;1999.90;999.90;;;22.70;99.90;;;;;;5016720;28;20508;-85
2022/10/29 10:47:56;;;;;;;1999.90;999.90;;;22.70;99.90;;;;;;5016643;28;20064;-85
2022/10/29 10:50:32;;;;;;;1999.90;999.90;;;22.60;99.90;;;;;;5034354;28;20030;-85
2022/10/29 10:53:22;;;;;;;1999.90;999.90;;;22.60;99.90;;;;;;5033831;28;20548;-86
2022/10/29 10:55:52;;;;;;;1999.90;999.90;;;22.60;99.90;;;;;;5023706;28;20057;-86
2022/10/29 10:58:43;;;;;;;1999.90;999.90;;;22.60;99.90;;;;;;5033967;28;20061;-86
2022/10/29 11:01:10;;;;;;;1999.90;999.90;;;22.50;99.90;;;;;;5022403;28;20025;-85
2022/10/29 11:03:42;;;;;;;1999.90;999.90;;;22.50;99.90;;;;;;5014540;28;20059;-85
2022/10/29 11:06:17;;;;;;;1999.90;999.90;;;22.60;99.90;;;;;;4996623;28;20033;-85
2022/10/29 11:08:51;;;;;;;1999.90;999.90;;;22.70;99.90;;;;;;5014240;28;20026;-85
2022/10/29 11:11:42;;;;;;;1999.90;999.90;;;22.70;99.90;;;;;;4996673;28;20105;-86
2022/10/29 11:14:29;;;;;;;1999.90;999.90;;;22.80;99.90;;;;;;4996347;28;20084;-86
2022/10/29 11:16:58;;;;;;;1999.90;999.90;;;22.70;99.90;;;;;;4995748;28;20022;-85
2022/10/29 11:19:30;;;;;;;1999.90;999.90;;;22.70;99.90;;;;;;5014058;28;20473;-84
2022/10/29 11:22:05;;;;;;;1999.90;999.90;;;22.70;99.90;;;;;;5012376;28;20034;-86
2022/10/29 11:24:48;;;;;;;1999.90;999.90;;;22.80;99.90;;;;;;5013815;28;20101;-86
2022/10/29 11:28:02;;;;;;;1999.90;999.90;;;22.90;99.90;;;;;;5013076;28;20033;-85
2022/10/29 11:30:32;;;;;;;1999.90;999.90;;;22.90;99.90;;;;;;5008696;28;20042;-86
2022/10/29 11:33:22;;;;;;;1999.90;999.90;;;23.00;99.90;;;;;;5013607;28;20504;-86
2022/10/29 11:36:05;;;;;;;1999.90;999.90;;;23.00;99.90;;;;;;5013672;28;20033;-86
2022/10/29 11:38:55;;;;;;;1999.90;999.90;;;23.00;99.90;;;;;;4995982;28;20033;-86
2022/10/29 11:41:59;;;;;;;1999.90;999.90;;;23.00;99.90;;;;;;5014306;28;20034;-87
2022/10/29 11:44:26;;;;;;;1999.90;999.90;;;23.10;99.90;;;;;;5013109;28;20136;-86
2022/10/29 11:47:07;;;;;;;1999.90;999.90;;;23.20;99.90;;;;;;5013486;28;20025;-87
2022/10/29 11:50:02;;;;;;;1999.90;999.90;;;23.30;99.90;;;;;;4996068;28;20029;-87
2022/10/29 11:52:52;;;;;;;1999.90;999.90;;;23.50;99.90;;;;;;5013085;28;20043;-86
2022/10/29 11:55:34;;;;;;;1999.90;999.90;;;23.60;99.90;;;;;;5013579;28;20405;-86
2022/10/29 11:58:18;;;;;;;1999.90;999.90;;;23.60;99.90;;;;;;5013265;28;20014;-86
2022/10/29 12:00:47;;;;;;;1999.90;999.90;;;24.10;99.90;;;;;;5023584;28;20041;-86
2022/10/29 12:03:25;;;;;;;1999.90;999.90;;;24.20;99.90;;;;;;5033155;28;20035;-85
2022/10/29 12:06:20;;;;;;;1999.90;999.90;;;24.50;99.90;;;;;;5033104;28;20108;-85
2022/10/29 12:09:29;;;;;;;1999.90;999.90;;;24.60;99.90;;;;;;5009558;28;20041;-85
2022/10/29 12:12:21;;;;;;;1999.90;999.90;;;24.10;99.90;;;;;;5014384;28;20108;-84
2022/10/29 12:15:14;;;;;;;1999.90;999.90;;;23.60;99.90;;;;;;5032340;28;20451;-86
2022/10/29 12:17:51;;;;;;;1999.90;999.90;;;23.40;99.90;;;;;;5032341;28;20022;-86
2022/10/29 12:20:29;;;;;;;1999.90;999.90;;;23.30;99.90;;;;;;5023138;28;20022;-86